This is the latest recevied weather packets stored in our database for station/object VK2HIM-1. If no packets are shown the sender has not sent any weather packets the latest 10 day(s).
| Time | Temp. | Humidity | Pressure | Rain* | Wind** | Luminosity | Snow |
|---|---|---|---|---|---|---|---|
| 1777680227 | 23.33° C | 72% | 1025.2 hPa | 0 mm | - | - | - |
| 1777678427 | 22.78° C | 77% | 1025.4 hPa | 0 mm | - | - | - |
| 1777676627 | 21.67° C | 79% | 1025.5 hPa | 0 mm | - | - | - |
| 1777674827 | 20.56° C | 80% | 1025.4 hPa | 0 mm | - | - | - |
| 1777673027 | 18.89° C | 93% | 1025.3 hPa | 0 mm | - | - | - |
| 1777671227 | 16.67° C | 95% | 1025.1 hPa | 0 mm | - | - | - |
| 1777669427 | 17.22° C | 95% | 1025.3 hPa | 0 mm | - | - | - |
| 1777667627 | 16.11° C | 94% | 1025.6 hPa | 0 mm | - | - | - |
| 1777665827 | 16.11° C | 94% | 1025.3 hPa | 0 mm | - | - | - |
| 1777664027 | 15.56° C | 94% | 1025 hPa | 0 mm | - | - | - |
| 1777662231 | 15.56° C | 94% | 1024.8 hPa | 0 mm | - | - | - |
| 1777660431 | 15.56° C | 94% | 1024.8 hPa | 0 mm | - | - | - |
| 1777658631 | 15.56° C | 93% | 1025 hPa | 0 mm | - | - | - |
| 1777656831 | 15.56° C | 93% | 1025 hPa | 0 mm | - | - | - |
| 1777655031 | 16.67° C | 90% | 1025.3 hPa | 0 mm | - | - | - |
| 1777653231 | 17.22° C | 91% | 1025.5 hPa | 0 mm | - | - | - |
| 1777651430 | 17.78° C | 87% | 1025.8 hPa | 0 mm | - | - | - |
| 1777649629 | 19.44° C | 87% | 1026 hPa | 0 mm | - | - | - |
| 1777647829 | 18.89° C | 85% | 1026.3 hPa | 0 mm | - | - | - |
| 1777646029 | 18.33° C | 87% | 1026.3 hPa | 0 mm | - | - | - |
| 1777644229 | 18.33° C | 86% | 1026.4 hPa | 0 mm | - | - | - |
| 1777642429 | 18.33° C | 85% | 1026.5 hPa | 0 mm | - | - | - |
| 1777640629 | 18.33° C | 84% | 1026.8 hPa | 0 mm | - | - | - |
| 1777638829 | 18.89° C | 83% | 1026.9 hPa | 0 mm | - | - | - |
| 1777637029 | 18.89° C | 83% | 1027.3 hPa | 0 mm | - | - | - |
* Rain latest hour (hover to see other rain measurements)
** Current wind speed in m/s (hover to see current wind gust speed)